CAL120 RCTP-ROAH
Flight info
| Callsign | CAL120 |
|---|---|
| Flight time | N/A |
| Altitude | 33000 |
| Route | KUDOS1C KUDOS R595 SEDKU Y573 MJC Y57 VELNO |
| Aircraft | A21N/M-SDE2E3FGHIRWXY/LB1 |
Departure
| Time | 2026-05-04 09:05 |
|---|---|
| Airport | Taiwan Taoyuan International Airport (RCTP) |
Arrival
| Time | N/A |
|---|---|
| Airport | Naha International Airport (ROAH) |
| Time | Latitude | Longitude | Altitude | Speed | Heading |
|---|---|---|---|---|---|
| 2026-05-04 07:57 | 25.07977 | 121.23901 | 116 ft | 0 kts | 320° |
| 2026-05-04 08:52 | 25.07968 | 121.23909 | 116 ft | 2 kts | 320° |
| 2026-05-04 08:52 | 25.07957 | 121.23920 | 116 ft | 2 kts | 320° |
| 2026-05-04 08:52 | 25.07945 | 121.23930 | 116 ft | 2 kts | 320° |
| 2026-05-04 08:52 | 25.07934 | 121.23941 | 116 ft | 2 kts | 320° |
| 2026-05-04 08:53 | 25.07922 | 121.23952 | 116 ft | 2 kts | 320° |
| 2026-05-04 08:54 | 25.07899 | 121.24018 | 116 ft | 0 kts | 228° |
| 2026-05-04 08:57 | 25.07775 | 121.23859 | 116 ft | 13 kts | 229° |
| 2026-05-04 09:01 | 25.06918 | 121.23092 | 116 ft | 14 kts | 229° |
| 2026-05-04 09:01 | 25.06850 | 121.23005 | 116 ft | 15 kts | 229° |
| 2026-05-04 09:01 | 25.06776 | 121.22910 | 116 ft | 16 kts | 229° |
| 2026-05-04 09:01 | 25.06699 | 121.22814 | 116 ft | 16 kts | 228° |
| 2026-05-04 09:02 | 25.06624 | 121.22718 | 116 ft | 16 kts | 230° |
| 2026-05-04 09:02 | 25.06549 | 121.22621 | 116 ft | 16 kts | 229° |
| 2026-05-04 09:02 | 25.06473 | 121.22526 | 116 ft | 16 kts | 228° |
| 2026-05-04 09:02 | 25.06398 | 121.22431 | 116 ft | 16 kts | 229° |
| 2026-05-04 09:03 | 25.06324 | 121.22336 | 116 ft | 16 kts | 230° |
| 2026-05-04 09:03 | 25.06252 | 121.22253 | 116 ft | 13 kts | 207° |
| 2026-05-04 09:03 | 25.06174 | 121.22275 | 116 ft | 7 kts | 139° |
| 2026-05-04 09:03 | 25.06171 | 121.22279 | 116 ft | 0 kts | 138° |
| 2026-05-04 09:04 | 25.06170 | 121.22279 | 116 ft | 0 kts | 138° |
| 2026-05-04 09:04 | 25.06159 | 121.22290 | 116 ft | 4 kts | 138° |
| 2026-05-04 09:04 | 25.06120 | 121.22330 | 116 ft | 8 kts | 131° |
| 2026-05-04 09:04 | 25.06119 | 121.22393 | 116 ft | 8 kts | 57° |
| 2026-05-04 09:05 | 25.06227 | 121.22537 | 116 ft | 55 kts | 50° |
| 2026-05-04 09:05 | 25.06632 | 121.23052 | 116 ft | 119 kts | 49° |
| 2026-05-04 09:05 | 25.07295 | 121.23891 | 206 ft | 161 kts | 51° |
| 2026-05-04 09:05 | 25.08002 | 121.24805 | 841 ft | 159 kts | 52° |
| 2026-05-04 09:06 | 25.08638 | 121.25764 | 1588 ft | 156 kts | 57° |
| 2026-05-04 09:07 | 25.14471 | 121.32807 | 4265 ft | 232 kts | 47° |
| 2026-05-04 09:08 | 25.15639 | 121.34140 | 4599 ft | 250 kts | 47° |
| 2026-05-04 09:08 | 25.16896 | 121.35577 | 5001 ft | 265 kts | 47° |
| 2026-05-04 09:08 | 25.18198 | 121.37067 | 5570 ft | 274 kts | 48° |
| 2026-05-04 09:08 | 25.19525 | 121.38584 | 6240 ft | 278 kts | 49° |
| 2026-05-04 09:09 | 25.20843 | 121.40106 | 7028 ft | 277 kts | 48° |
| 2026-05-04 09:09 | 25.22204 | 121.41688 | 7453 ft | 292 kts | 47° |
| 2026-05-04 09:09 | 25.23625 | 121.43329 | 8051 ft | 298 kts | 45° |
| 2026-05-04 09:09 | 25.25059 | 121.44992 | 8792 ft | 300 kts | 44° |
| 2026-05-04 09:10 | 25.26514 | 121.46670 | 9323 ft | 308 kts | 43° |
| 2026-05-04 09:10 | 25.28009 | 121.48399 | 9844 ft | 317 kts | 46° |
| 2026-05-04 09:10 | 25.29150 | 121.50519 | 10377 ft | 327 kts | 74° |
| 2026-05-04 09:10 | 25.29281 | 121.53050 | 10699 ft | 337 kts | 105° |
| 2026-05-04 09:11 | 25.28320 | 121.55379 | 10922 ft | 340 kts | 134° |
| 2026-05-04 09:11 | 25.26572 | 121.57097 | 11440 ft | 338 kts | 147° |
| 2026-05-04 09:11 | 25.24893 | 121.58975 | 11992 ft | 353 kts | 126° |
| 2026-05-04 09:11 | 25.23865 | 121.61444 | 12603 ft | 360 kts | 113° |
| 2026-05-04 09:12 | 25.23088 | 121.64102 | 13168 ft | 364 kts | 110° |
| 2026-05-04 09:12 | 25.22364 | 121.66801 | 13711 ft | 368 kts | 109° |
| 2026-05-04 09:14 | 25.16862 | 121.86225 | 16952 ft | 393 kts | 111° |
| 2026-05-04 09:14 | 25.16026 | 121.89117 | 17365 ft | 396 kts | 111° |
| 2026-05-04 09:14 | 25.15187 | 121.92007 | 17756 ft | 400 kts | 111° |
| 2026-05-04 09:14 | 25.14342 | 121.94923 | 18139 ft | 403 kts | 111° |
| 2026-05-04 09:15 | 25.13542 | 121.97932 | 18550 ft | 407 kts | 108° |
| 2026-05-04 09:15 | 25.12971 | 122.00994 | 18955 ft | 412 kts | 102° |
| 2026-05-04 09:15 | 25.12629 | 122.04127 | 19351 ft | 416 kts | 98° |
| 2026-05-04 09:15 | 25.12375 | 122.07288 | 19720 ft | 419 kts | 97° |
| 2026-05-04 09:17 | 25.10188 | 122.33424 | 22513 ft | 438 kts | 99° |
| 2026-05-04 09:18 | 25.09859 | 122.36774 | 22853 ft | 440 kts | 99° |
| 2026-05-04 09:18 | 25.09532 | 122.40121 | 23178 ft | 443 kts | 99° |
| 2026-05-04 09:18 | 25.09198 | 122.43529 | 23486 ft | 446 kts | 99° |
| 2026-05-04 09:18 | 25.08866 | 122.46938 | 23797 ft | 449 kts | 99° |
| 2026-05-04 09:19 | 25.08540 | 122.50318 | 24145 ft | 450 kts | 99° |
| 2026-05-04 09:19 | 25.08204 | 122.53791 | 24475 ft | 453 kts | 98° |
| 2026-05-04 09:19 | 25.07871 | 122.57221 | 24787 ft | 455 kts | 98° |
| 2026-05-04 09:19 | 25.07535 | 122.60696 | 25102 ft | 457 kts | 99° |
| 2026-05-04 09:20 | 25.07193 | 122.64198 | 25418 ft | 460 kts | 98° |
| 2026-05-04 09:20 | 25.06851 | 122.67688 | 25711 ft | 462 kts | 99° |
| 2026-05-04 09:20 | 25.06509 | 122.71194 | 25992 ft | 464 kts | 99° |
| 2026-05-04 09:20 | 25.06160 | 122.74756 | 26269 ft | 467 kts | 99° |
| 2026-05-04 09:21 | 25.05810 | 122.78294 | 26536 ft | 469 kts | 99° |
| 2026-05-04 09:21 | 25.05455 | 122.81902 | 26820 ft | 471 kts | 99° |
| 2026-05-04 09:21 | 25.05099 | 122.85502 | 27078 ft | 474 kts | 98° |
| 2026-05-04 09:21 | 25.04742 | 122.89117 | 27325 ft | 476 kts | 98° |
| 2026-05-04 09:22 | 25.04385 | 122.92716 | 27590 ft | 478 kts | 98° |
| 2026-05-04 09:22 | 25.04019 | 122.96393 | 27836 ft | 481 kts | 98° |
| 2026-05-04 09:22 | 25.03653 | 123.00039 | 28093 ft | 483 kts | 98° |
| 2026-05-04 09:22 | 25.03280 | 123.03751 | 28333 ft | 486 kts | 98° |
| 2026-05-04 09:23 | 25.02915 | 123.07412 | 28585 ft | 488 kts | 98° |
| 2026-05-04 09:23 | 25.02541 | 123.11166 | 28871 ft | 490 kts | 98° |
| 2026-05-04 09:23 | 25.02168 | 123.14889 | 29136 ft | 491 kts | 98° |
| 2026-05-04 09:23 | 25.01793 | 123.18604 | 29400 ft | 493 kts | 98° |
| 2026-05-04 09:25 | 24.99123 | 123.44693 | 31877 ft | 488 kts | 99° |
| 2026-05-04 09:25 | 24.98739 | 123.48412 | 32110 ft | 490 kts | 99° |
| 2026-05-04 09:26 | 24.98357 | 123.52110 | 32352 ft | 492 kts | 99° |
| 2026-05-04 09:26 | 24.97966 | 123.55883 | 32627 ft | 492 kts | 99° |
| 2026-05-04 09:26 | 24.97573 | 123.59676 | 32913 ft | 493 kts | 99° |
| 2026-05-04 09:26 | 24.97181 | 123.63424 | 33078 ft | 495 kts | 99° |
| 2026-05-04 09:27 | 24.96393 | 123.70953 | 33090 ft | 496 kts | 100° |
| 2026-05-04 09:27 | 24.95601 | 123.78500 | 33090 ft | 496 kts | 100° |
| 2026-05-04 09:28 | 24.94808 | 123.86029 | 33095 ft | 496 kts | 100° |
| 2026-05-04 09:28 | 24.94010 | 123.93569 | 33095 ft | 496 kts | 100° |
| 2026-05-04 09:29 | 24.93207 | 124.01077 | 33091 ft | 496 kts | 100° |
| 2026-05-04 09:29 | 24.92330 | 124.08633 | 33092 ft | 495 kts | 101° |
| 2026-05-04 09:30 | 24.91441 | 124.16120 | 33092 ft | 494 kts | 101° |
| 2026-05-04 09:30 | 24.90561 | 124.23587 | 33089 ft | 492 kts | 101° |
| 2026-05-04 09:31 | 24.89681 | 124.31030 | 33083 ft | 492 kts | 100° |
| 2026-05-04 09:31 | 24.88792 | 124.38516 | 33088 ft | 492 kts | 100° |
| 2026-05-04 09:32 | 24.87912 | 124.45927 | 33078 ft | 491 kts | 101° |
| 2026-05-04 09:34 | 24.84352 | 124.75563 | 33072 ft | 488 kts | 101° |
| 2026-05-04 09:34 | 24.83457 | 124.82945 | 33070 ft | 488 kts | 101° |
| 2026-05-04 09:35 | 24.82550 | 124.90362 | 33070 ft | 488 kts | 101° |
| 2026-05-04 09:35 | 24.81645 | 124.97719 | 33064 ft | 487 kts | 101° |
| 2026-05-04 09:37 | 24.78990 | 125.27293 | 33068 ft | 491 kts | 82° |
| 2026-05-04 09:38 | 24.80823 | 125.34488 | 33070 ft | 492 kts | 65° |
| 2026-05-04 09:38 | 24.84163 | 125.41024 | 33074 ft | 490 kts | 55° |
| 2026-05-04 09:39 | 24.87846 | 125.47324 | 33081 ft | 490 kts | 55° |
| 2026-05-04 09:39 | 24.91500 | 125.53670 | 33088 ft | 490 kts | 55° |
| 2026-05-04 09:40 | 24.95094 | 125.60000 | 33089 ft | 490 kts | 56° |
| 2026-05-04 09:40 | 24.98692 | 125.66375 | 33092 ft | 490 kts | 56° |
| 2026-05-04 09:42 | 25.13032 | 125.91871 | 33095 ft | 490 kts | 56° |
| 2026-05-04 09:43 | 25.16618 | 125.98268 | 33097 ft | 491 kts | 56° |
| 2026-05-04 09:43 | 25.20194 | 126.04662 | 33095 ft | 492 kts | 56° |